Portada
METAR-TAF:

METAR-TAF

Aeroports :

Mysore, Índia

latitud: 12-13-48N, longitud: 76-39-21E, altitud: 715 m

Observació

L'informe es va fer fa 32 minuts, a les 14:00 UTC
Vent 8 kt del Oest
Temperatura 23°C
Humitat 89%
Pressió 1014 hPa
Visibilitat: 6000 m
Escasses núvols a una alçada de 1200 ft
Núvols disperses a una alçada de 8000 ft

METAR: VOMY 211400Z 27008KT 6000 FEW012 SCT080 23/21 Q1014

Hora: 20:02 (14:32 UTC)

Pronòstic

L'informe es va fer fa 6 hores i 32 minuts, a les 08:00 UTC
Pronòstic vàlid del 21 a les 09 UTC al 21 a les 18 UTC
Vent 10 kt del Oest/Nord-Oest
Visibilitat: 6000 m
Núvols disperses a una alçada de 1200 ft
Núvols disperses a una alçada de 8000 ft
Temporalment
l' 21 a les 09 UTC al 21 a les 15 UTC

TAF: VOMY 210800Z 2109/2118 29010KT 6000 SCT012 SCT080 TEMPO 2109/2115

Observacions i pronòstics meteorològics de més de 4000 aeroports (METAR i TAF).

Les estacions disponibles són els punts grocs i vermells al mapa.

Posi el ratolí al punt desitjat per veure el nom de l'estació.

Feu clic per veure les observacions i els pronòstics meteorològics.

Per canviar el mapa: feu clic els botons verds amb una creu de color negre per apropar; al botó verd amb un guió per allunyar la imatge; o en les fletxes verdes per a mapes adjacents.


METAR-TAF: